sensor_id;sensor_type;location;lat;lon;timestamp;P1;durP1;ratioP1;P2;durP2;ratioP2
8885;SDS011;4479;51.162;13.906;2023-03-16T00:04:40;3.23;;;2.00;;
8885;SDS011;4479;51.162;13.906;2023-03-16T00:14:48;2.80;;;1.70;;
8885;SDS011;4479;51.162;13.906;2023-03-16T00:24:50;4.73;;;2.17;;
8885;SDS011;4479;51.162;13.906;2023-03-16T00:34:54;4.77;;;2.20;;
8885;SDS011;4479;51.162;13.906;2023-03-16T00:44:57;4.23;;;2.03;;
8885;SDS011;4479;51.162;13.906;2023-03-16T00:55:02;2.77;;;1.90;;
8885;SDS011;4479;51.162;13.906;2023-03-16T01:05:05;2.43;;;2.00;;
8885;SDS011;4479;51.162;13.906;2023-03-16T01:15:10;3.97;;;2.03;;
8885;SDS011;4479;51.162;13.906;2023-03-16T01:25:14;3.40;;;2.47;;
8885;SDS011;4479;51.162;13.906;2023-03-16T01:35:18;3.00;;;2.37;;
8885;SDS011;4479;51.162;13.906;2023-03-16T01:56:24;2.23;;;1.97;;
8885;SDS011;4479;51.162;13.906;2023-03-16T02:06:33;2.87;;;2.10;;
8885;SDS011;4479;51.162;13.906;2023-03-16T02:16:38;3.63;;;2.40;;
8885;SDS011;4479;51.162;13.906;2023-03-16T02:26:42;3.97;;;2.57;;
8885;SDS011;4479;51.162;13.906;2023-03-16T02:36:53;4.63;;;2.07;;
8885;SDS011;4479;51.162;13.906;2023-03-16T02:46:59;3.43;;;1.90;;
8885;SDS011;4479;51.162;13.906;2023-03-16T02:57:05;3.70;;;2.40;;
8885;SDS011;4479;51.162;13.906;2023-03-16T03:07:09;4.77;;;2.20;;
8885;SDS011;4479;51.162;13.906;2023-03-16T03:17:29;5.60;;;2.40;;
8885;SDS011;4479;51.162;13.906;2023-03-16T03:27:33;5.83;;;2.70;;
8885;SDS011;4479;51.162;13.906;2023-03-16T03:37:40;3.93;;;3.00;;
8885;SDS011;4479;51.162;13.906;2023-03-16T03:47:43;4.63;;;2.73;;
8885;SDS011;4479;51.162;13.906;2023-03-16T03:57:53;6.30;;;3.03;;
8885;SDS011;4479;51.162;13.906;2023-03-16T04:07:55;4.00;;;2.80;;
8885;SDS011;4479;51.162;13.906;2023-03-16T04:17:59;6.93;;;3.70;;
8885;SDS011;4479;51.162;13.906;2023-03-16T04:28:03;7.03;;;3.67;;
8885;SDS011;4479;51.162;13.906;2023-03-16T04:38:09;5.13;;;2.90;;
8885;SDS011;4479;51.162;13.906;2023-03-16T04:48:21;5.10;;;3.07;;
8885;SDS011;4479;51.162;13.906;2023-03-16T04:58:26;4.53;;;3.13;;
8885;SDS011;4479;51.162;13.906;2023-03-16T05:08:30;4.83;;;2.60;;
8885;SDS011;4479;51.162;13.906;2023-03-16T05:18:33;5.10;;;3.23;;
8885;SDS011;4479;51.162;13.906;2023-03-16T05:28:35;4.27;;;3.10;;
8885;SDS011;4479;51.162;13.906;2023-03-16T05:38:42;4.60;;;3.03;;
8885;SDS011;4479;51.162;13.906;2023-03-16T05:48:49;4.77;;;2.97;;
8885;SDS011;4479;51.162;13.906;2023-03-16T05:58:54;4.83;;;3.10;;
8885;SDS011;4479;51.162;13.906;2023-03-16T06:08:58;5.17;;;3.47;;
8885;SDS011;4479;51.162;13.906;2023-03-16T06:19:03;5.70;;;3.30;;
8885;SDS011;4479;51.162;13.906;2023-03-16T06:29:06;5.07;;;3.13;;
8885;SDS011;4479;51.162;13.906;2023-03-16T06:39:12;4.33;;;3.47;;
8885;SDS011;4479;51.162;13.906;2023-03-16T06:49:18;4.90;;;3.23;;
8885;SDS011;4479;51.162;13.906;2023-03-16T06:59:22;6.33;;;3.80;;
8885;SDS011;4479;51.162;13.906;2023-03-16T07:09:24;7.17;;;3.77;;
8885;SDS011;4479;51.162;13.906;2023-03-16T07:19:28;6.43;;;3.60;;
8885;SDS011;4479;51.162;13.906;2023-03-16T07:29:34;4.43;;;3.20;;
8885;SDS011;4479;51.162;13.906;2023-03-16T07:39:39;4.40;;;3.37;;
8885;SDS011;4479;51.162;13.906;2023-03-16T07:49:51;7.17;;;3.80;;
8885;SDS011;4479;51.162;13.906;2023-03-16T07:59:54;6.83;;;3.93;;
8885;SDS011;4479;51.162;13.906;2023-03-16T08:09:57;8.50;;;3.37;;
8885;SDS011;4479;51.162;13.906;2023-03-16T08:20:08;5.50;;;3.43;;
8885;SDS011;4479;51.162;13.906;2023-03-16T08:30:14;6.47;;;3.43;;
8885;SDS011;4479;51.162;13.906;2023-03-16T08:40:26;4.43;;;2.67;;
8885;SDS011;4479;51.162;13.906;2023-03-16T08:50:30;7.47;;;3.10;;
8885;SDS011;4479;51.162;13.906;2023-03-16T09:00:35;2.57;;;1.60;;
8885;SDS011;4479;51.162;13.906;2023-03-16T09:10:37;10.00;;;1.30;;
8885;SDS011;4479;51.162;13.906;2023-03-16T09:20:40;3.70;;;1.07;;
8885;SDS011;4479;51.162;13.906;2023-03-16T09:30:42;2.67;;;1.40;;
8885;SDS011;4479;51.162;13.906;2023-03-16T09:40:47;3.77;;;1.33;;
8885;SDS011;4479;51.162;13.906;2023-03-16T09:50:59;3.37;;;1.10;;
8885;SDS011;4479;51.162;13.906;2023-03-16T10:01:10;4.23;;;1.27;;
8885;SDS011;4479;51.162;13.906;2023-03-16T10:11:23;2.27;;;1.30;;
8885;SDS011;4479;51.162;13.906;2023-03-16T10:21:32;2.87;;;1.40;;
8885;SDS011;4479;51.162;13.906;2023-03-16T10:31:41;1.83;;;1.00;;
8885;SDS011;4479;51.162;13.906;2023-03-16T10:41:47;3.07;;;1.07;;
8885;SDS011;4479;51.162;13.906;2023-03-16T10:51:57;1.47;;;0.87;;
8885;SDS011;4479;51.162;13.906;2023-03-16T11:02:07;4.37;;;1.10;;
8885;SDS011;4479;51.162;13.906;2023-03-16T11:12:20;3.43;;;1.10;;
8885;SDS011;4479;51.162;13.906;2023-03-16T11:22:29;1.97;;;0.93;;
8885;SDS011;4479;51.162;13.906;2023-03-16T11:32:32;2.57;;;1.63;;
8885;SDS011;4479;51.162;13.906;2023-03-16T11:42:40;3.80;;;1.30;;
8885;SDS011;4479;51.162;13.906;2023-03-16T11:52:54;2.33;;;1.00;;
8885;SDS011;4479;51.162;13.906;2023-03-16T12:13:39;3.30;;;1.10;;
8885;SDS011;4479;51.162;13.906;2023-03-16T12:23:58;2.10;;;1.00;;
8885;SDS011;4479;51.162;13.906;2023-03-16T12:34:06;2.07;;;0.80;;
8885;SDS011;4479;51.162;13.906;2023-03-16T12:44:21;3.30;;;1.00;;
8885;SDS011;4479;51.162;13.906;2023-03-16T12:54:33;2.90;;;1.23;;
8885;SDS011;4479;51.162;13.906;2023-03-16T13:04:38;4.07;;;2.00;;
8885;SDS011;4479;51.162;13.906;2023-03-16T13:14:43;2.23;;;1.40;;
8885;SDS011;4479;51.162;13.906;2023-03-16T13:24:51;2.73;;;1.43;;
8885;SDS011;4479;51.162;13.906;2023-03-16T13:34:56;2.30;;;1.50;;
8885;SDS011;4479;51.162;13.906;2023-03-16T13:45:10;2.93;;;1.80;;
8885;SDS011;4479;51.162;13.906;2023-03-16T13:55:15;5.47;;;3.27;;
8885;SDS011;4479;51.162;13.906;2023-03-16T14:05:21;4.87;;;2.20;;
8885;SDS011;4479;51.162;13.906;2023-03-16T14:15:26;4.40;;;2.30;;
8885;SDS011;4479;51.162;13.906;2023-03-16T14:25:32;3.03;;;1.50;;
8885;SDS011;4479;51.162;13.906;2023-03-16T14:35:38;4.00;;;2.50;;
8885;SDS011;4479;51.162;13.906;2023-03-16T14:45:45;3.40;;;2.07;;
8885;SDS011;4479;51.162;13.906;2023-03-16T14:55:46;3.03;;;1.80;;
8885;SDS011;4479;51.162;13.906;2023-03-16T15:05:51;2.23;;;1.60;;
8885;SDS011;4479;51.162;13.906;2023-03-16T15:15:53;3.10;;;2.00;;
8885;SDS011;4479;51.162;13.906;2023-03-16T15:25:56;2.57;;;1.80;;
8885;SDS011;4479;51.162;13.906;2023-03-16T15:36:08;2.37;;;1.57;;
8885;SDS011;4479;51.162;13.906;2023-03-16T15:46:15;1.90;;;1.30;;
8885;SDS011;4479;51.162;13.906;2023-03-16T15:56:20;1.50;;;1.40;;
8885;SDS011;4479;51.162;13.906;2023-03-16T16:06:30;3.10;;;1.80;;
8885;SDS011;4479;51.162;13.906;2023-03-16T16:16:32;2.40;;;2.07;;
8885;SDS011;4479;51.162;13.906;2023-03-16T16:26:37;4.93;;;2.80;;
8885;SDS011;4479;51.162;13.906;2023-03-16T16:36:43;3.27;;;2.50;;
8885;SDS011;4479;51.162;13.906;2023-03-16T16:46:48;4.07;;;2.60;;
8885;SDS011;4479;51.162;13.906;2023-03-16T16:56:51;4.10;;;2.37;;
8885;SDS011;4479;51.162;13.906;2023-03-16T17:06:57;10.07;;;5.70;;
8885;SDS011;4479;51.162;13.906;2023-03-16T17:17:01;3.77;;;2.27;;
8885;SDS011;4479;51.162;13.906;2023-03-16T17:27:12;6.03;;;2.40;;
8885;SDS011;4479;51.162;13.906;2023-03-16T17:37:15;3.57;;;2.27;;
8885;SDS011;4479;51.162;13.906;2023-03-16T17:47:21;3.57;;;2.60;;
8885;SDS011;4479;51.162;13.906;2023-03-16T17:57:27;3.10;;;2.10;;
8885;SDS011;4479;51.162;13.906;2023-03-16T18:07:32;7.97;;;3.00;;
8885;SDS011;4479;51.162;13.906;2023-03-16T18:17:34;4.63;;;2.70;;
8885;SDS011;4479;51.162;13.906;2023-03-16T18:28:38;4.40;;;3.13;;
8885;SDS011;4479;51.162;13.906;2023-03-16T18:38:55;5.00;;;3.70;;
8885;SDS011;4479;51.162;13.906;2023-03-16T18:49:02;6.23;;;3.90;;
8885;SDS011;4479;51.162;13.906;2023-03-16T18:59:12;6.43;;;4.13;;
8885;SDS011;4479;51.162;13.906;2023-03-16T19:09:22;6.03;;;3.30;;
8885;SDS011;4479;51.162;13.906;2023-03-16T19:19:27;6.53;;;4.07;;
8885;SDS011;4479;51.162;13.906;2023-03-16T19:29:41;4.97;;;3.60;;
8885;SDS011;4479;51.162;13.906;2023-03-16T19:39:45;4.70;;;3.20;;
8885;SDS011;4479;51.162;13.906;2023-03-16T19:49:48;5.80;;;3.60;;
8885;SDS011;4479;51.162;13.906;2023-03-16T19:59:51;7.30;;;4.13;;
8885;SDS011;4479;51.162;13.906;2023-03-16T20:09:58;6.03;;;3.83;;
8885;SDS011;4479;51.162;13.906;2023-03-16T20:20:01;6.10;;;3.97;;
8885;SDS011;4479;51.162;13.906;2023-03-16T20:30:14;6.17;;;4.00;;
8885;SDS011;4479;51.162;13.906;2023-03-16T20:40:21;6.00;;;4.13;;
8885;SDS011;4479;51.162;13.906;2023-03-16T20:50:32;5.93;;;4.07;;
8885;SDS011;4479;51.162;13.906;2023-03-16T21:00:35;5.63;;;4.13;;
8885;SDS011;4479;51.162;13.906;2023-03-16T21:10:41;5.83;;;4.20;;
8885;SDS011;4479;51.162;13.906;2023-03-16T21:21:10;5.90;;;3.73;;
8885;SDS011;4479;51.162;13.906;2023-03-16T21:31:27;8.00;;;3.90;;
8885;SDS011;4479;51.162;13.906;2023-03-16T21:41:51;4.73;;;3.77;;
8885;SDS011;4479;51.162;13.906;2023-03-16T21:51:57;5.50;;;4.00;;
8885;SDS011;4479;51.162;13.906;2023-03-16T22:02:10;5.83;;;4.03;;
8885;SDS011;4479;51.162;13.906;2023-03-16T22:12:20;4.73;;;3.60;;
8885;SDS011;4479;51.162;13.906;2023-03-16T22:22:22;6.23;;;3.87;;
8885;SDS011;4479;51.162;13.906;2023-03-16T22:32:25;6.43;;;3.40;;
8885;SDS011;4479;51.162;13.906;2023-03-16T22:42:30;4.57;;;3.30;;
8885;SDS011;4479;51.162;13.906;2023-03-16T22:52:37;5.80;;;3.40;;
8885;SDS011;4479;51.162;13.906;2023-03-16T23:02:40;7.77;;;3.57;;
8885;SDS011;4479;51.162;13.906;2023-03-16T23:12:44;7.00;;;3.63;;
8885;SDS011;4479;51.162;13.906;2023-03-16T23:22:46;4.63;;;3.47;;
8885;SDS011;4479;51.162;13.906;2023-03-16T23:32:51;6.50;;;3.57;;
8885;SDS011;4479;51.162;13.906;2023-03-16T23:42:55;5.03;;;3.53;;
8885;SDS011;4479;51.162;13.906;2023-03-16T23:53:00;6.80;;;3.70;;
